sensor_id;sensor_type;location;lat;lon;timestamp;P1;durP1;ratioP1;P2;durP2;ratioP2
44636;SDS011;30343;0.000;0.000;2022-08-07T00:02:04;2.22;;;1.75;;
44636;SDS011;30343;0.000;0.000;2022-08-07T00:04:50;7.80;;;1.80;;
44636;SDS011;30343;0.000;0.000;2022-08-07T00:07:34;2.10;;;1.90;;
44636;SDS011;30343;0.000;0.000;2022-08-07T00:10:24;3.50;;;2.13;;
44636;SDS011;30343;0.000;0.000;2022-08-07T00:13:11;6.20;;;2.20;;
44636;SDS011;30343;0.000;0.000;2022-08-07T00:15:55;6.28;;;1.77;;
44636;SDS011;30343;0.000;0.000;2022-08-07T00:18:48;3.00;;;1.73;;
44636;SDS011;30343;0.000;0.000;2022-08-07T00:21:34;6.20;;;2.10;;
44636;SDS011;30343;0.000;0.000;2022-08-07T00:24:18;3.72;;;2.10;;
44636;SDS011;30343;0.000;0.000;2022-08-07T00:27:05;4.65;;;2.63;;
44636;SDS011;30343;0.000;0.000;2022-08-07T00:29:52;5.90;;;2.45;;
44636;SDS011;30343;0.000;0.000;2022-08-07T00:32:36;2.60;;;1.92;;
44636;SDS011;30343;0.000;0.000;2022-08-07T00:35:25;5.35;;;2.10;;
44636;SDS011;30343;0.000;0.000;2022-08-07T00:38:13;2.33;;;1.80;;
44636;SDS011;30343;0.000;0.000;2022-08-07T00:40:58;3.75;;;2.40;;
44636;SDS011;30343;0.000;0.000;2022-08-07T00:43:45;3.72;;;2.00;;
44636;SDS011;30343;0.000;0.000;2022-08-07T00:46:32;4.60;;;2.53;;
44636;SDS011;30343;0.000;0.000;2022-08-07T00:49:16;2.90;;;1.92;;
44636;SDS011;30343;0.000;0.000;2022-08-07T00:52:00;4.55;;;2.15;;
44636;SDS011;30343;0.000;0.000;2022-08-07T00:54:48;6.00;;;2.20;;
44636;SDS011;30343;0.000;0.000;2022-08-07T00:57:38;3.78;;;2.22;;
44636;SDS011;30343;0.000;0.000;2022-08-07T01:00:22;4.32;;;1.90;;
44636;SDS011;30343;0.000;0.000;2022-08-07T01:03:10;4.10;;;2.42;;
44636;SDS011;30343;0.000;0.000;2022-08-07T01:05:57;4.97;;;2.20;;
44636;SDS011;30343;0.000;0.000;2022-08-07T01:11:28;4.97;;;2.17;;
44636;SDS011;30343;0.000;0.000;2022-08-07T01:14:12;2.45;;;1.92;;
44636;SDS011;30343;0.000;0.000;2022-08-07T01:16:59;4.38;;;2.08;;
44636;SDS011;30343;0.000;0.000;2022-08-07T01:19:46;3.20;;;2.20;;
44636;SDS011;30343;0.000;0.000;2022-08-07T01:25:21;7.80;;;2.53;;
44636;SDS011;30343;0.000;0.000;2022-08-07T01:28:06;6.22;;;2.75;;
44636;SDS011;30343;0.000;0.000;2022-08-07T01:30:53;3.55;;;2.25;;
44636;SDS011;30343;0.000;0.000;2022-08-07T01:33:47;3.03;;;2.20;;
44636;SDS011;30343;0.000;0.000;2022-08-07T01:36:34;3.63;;;2.28;;
44636;SDS011;30343;0.000;0.000;2022-08-07T01:39:19;6.22;;;2.78;;
44636;SDS011;30343;0.000;0.000;2022-08-07T01:42:05;2.83;;;2.28;;
44636;SDS011;30343;0.000;0.000;2022-08-07T01:44:52;4.68;;;2.10;;
44636;SDS011;30343;0.000;0.000;2022-08-07T01:47:36;4.38;;;2.10;;
44636;SDS011;30343;0.000;0.000;2022-08-07T01:50:25;4.07;;;2.40;;
44636;SDS011;30343;0.000;0.000;2022-08-07T01:53:10;4.38;;;2.40;;
44636;SDS011;30343;0.000;0.000;2022-08-07T01:56:00;9.32;;;2.22;;
44636;SDS011;30343;0.000;0.000;2022-08-07T01:58:48;5.93;;;2.45;;
44636;SDS011;30343;0.000;0.000;2022-08-07T02:01:44;5.13;;;2.38;;
44636;SDS011;30343;0.000;0.000;2022-08-07T02:05:01;4.60;;;2.50;;
44636;SDS011;30343;0.000;0.000;2022-08-07T02:07:49;5.07;;;2.15;;
44636;SDS011;30343;0.000;0.000;2022-08-07T02:10:40;4.20;;;2.75;;
44636;SDS011;30343;0.000;0.000;2022-08-07T02:13:30;2.72;;;2.30;;
44636;SDS011;30343;0.000;0.000;2022-08-07T02:16:16;5.10;;;2.80;;
44636;SDS011;30343;0.000;0.000;2022-08-07T02:19:05;3.67;;;2.42;;
44636;SDS011;30343;0.000;0.000;2022-08-07T02:21:58;5.25;;;2.58;;
44636;SDS011;30343;0.000;0.000;2022-08-07T02:24:45;5.82;;;2.75;;
44636;SDS011;30343;0.000;0.000;2022-08-07T02:27:37;3.97;;;2.65;;
44636;SDS011;30343;0.000;0.000;2022-08-07T02:30:23;5.00;;;2.88;;
44636;SDS011;30343;0.000;0.000;2022-08-07T02:33:08;9.95;;;2.42;;
44636;SDS011;30343;0.000;0.000;2022-08-07T02:35:56;4.30;;;2.45;;
44636;SDS011;30343;0.000;0.000;2022-08-07T02:38:46;4.40;;;2.20;;
44636;SDS011;30343;0.000;0.000;2022-08-07T02:41:30;2.90;;;2.08;;
44636;SDS011;30343;0.000;0.000;2022-08-07T02:44:23;5.95;;;3.08;;
44636;SDS011;30343;0.000;0.000;2022-08-07T02:47:10;4.13;;;2.35;;
44636;SDS011;30343;0.000;0.000;2022-08-07T02:49:58;3.80;;;2.63;;
44636;SDS011;30343;0.000;0.000;2022-08-07T02:52:46;4.53;;;1.85;;
44636;SDS011;30343;0.000;0.000;2022-08-07T02:55:41;3.90;;;2.47;;
44636;SDS011;30343;0.000;0.000;2022-08-07T02:58:30;3.33;;;2.28;;
44636;SDS011;30343;0.000;0.000;2022-08-07T03:01:22;4.47;;;2.75;;
44636;SDS011;30343;0.000;0.000;2022-08-07T03:04:10;8.32;;;3.05;;
44636;SDS011;30343;0.000;0.000;2022-08-07T03:06:56;5.60;;;2.40;;
44636;SDS011;30343;0.000;0.000;2022-08-07T03:09:45;4.40;;;2.85;;
44636;SDS011;30343;0.000;0.000;2022-08-07T03:12:30;5.43;;;2.80;;
44636;SDS011;30343;0.000;0.000;2022-08-07T03:15:20;4.20;;;2.88;;
44636;SDS011;30343;0.000;0.000;2022-08-07T03:18:11;3.47;;;2.25;;
44636;SDS011;30343;0.000;0.000;2022-08-07T03:20:58;3.13;;;2.45;;
44636;SDS011;30343;0.000;0.000;2022-08-07T03:23:47;3.90;;;2.47;;
44636;SDS011;30343;0.000;0.000;2022-08-07T03:26:34;3.17;;;2.50;;
44636;SDS011;30343;0.000;0.000;2022-08-07T03:32:06;4.35;;;2.53;;
44636;SDS011;30343;0.000;0.000;2022-08-07T03:34:53;3.03;;;2.70;;
44636;SDS011;30343;0.000;0.000;2022-08-07T03:37:48;3.45;;;2.78;;
44636;SDS011;30343;0.000;0.000;2022-08-07T03:40:39;6.03;;;2.92;;
44636;SDS011;30343;0.000;0.000;2022-08-07T03:43:29;4.85;;;2.90;;
44636;SDS011;30343;0.000;0.000;2022-08-07T03:46:14;4.07;;;2.85;;
44636;SDS011;30343;0.000;0.000;2022-08-07T03:49:02;6.50;;;3.13;;
44636;SDS011;30343;0.000;0.000;2022-08-07T03:51:50;4.72;;;3.00;;
44636;SDS011;30343;0.000;0.000;2022-08-07T03:54:38;4.80;;;2.53;;
44636;SDS011;30343;0.000;0.000;2022-08-07T03:57:31;4.82;;;2.97;;
44636;SDS011;30343;0.000;0.000;2022-08-07T04:00:19;7.22;;;2.75;;
44636;SDS011;30343;0.000;0.000;2022-08-07T04:03:07;5.22;;;3.22;;
44636;SDS011;30343;0.000;0.000;2022-08-07T04:06:00;3.08;;;2.70;;
44636;SDS011;30343;0.000;0.000;2022-08-07T04:08:55;5.32;;;3.25;;
44636;SDS011;30343;0.000;0.000;2022-08-07T04:11:41;3.65;;;2.92;;
44636;SDS011;30343;0.000;0.000;2022-08-07T04:14:33;5.03;;;2.80;;
44636;SDS011;30343;0.000;0.000;2022-08-07T04:17:27;5.35;;;3.28;;
44636;SDS011;30343;0.000;0.000;2022-08-07T04:20:14;4.53;;;3.28;;
44636;SDS011;30343;0.000;0.000;2022-08-07T04:23:04;3.83;;;3.40;;
44636;SDS011;30343;0.000;0.000;2022-08-07T04:25:56;11.02;;;3.50;;
44636;SDS011;30343;0.000;0.000;2022-08-07T04:28:43;5.35;;;3.08;;
44636;SDS011;30343;0.000;0.000;2022-08-07T04:31:33;6.60;;;3.75;;
44636;SDS011;30343;0.000;0.000;2022-08-07T04:34:20;6.50;;;4.05;;
44636;SDS011;30343;0.000;0.000;2022-08-07T04:37:08;6.47;;;3.70;;
44636;SDS011;30343;0.000;0.000;2022-08-07T04:40:01;4.18;;;2.80;;
44636;SDS011;30343;0.000;0.000;2022-08-07T04:42:50;5.47;;;3.50;;
44636;SDS011;30343;0.000;0.000;2022-08-07T04:51:25;4.60;;;3.28;;
44636;SDS011;30343;0.000;0.000;2022-08-07T05:01:11;7.40;;;3.40;;
44636;SDS011;30343;0.000;0.000;2022-08-07T05:06:48;4.55;;;3.15;;
44636;SDS011;30343;0.000;0.000;2022-08-07T05:12:53;5.68;;;3.50;;
44636;SDS011;30343;0.000;0.000;2022-08-07T05:15:58;4.47;;;3.38;;
44636;SDS011;30343;0.000;0.000;2022-08-07T05:18:45;5.07;;;3.65;;
44636;SDS011;30343;0.000;0.000;2022-08-07T05:21:39;8.05;;;3.50;;
44636;SDS011;30343;0.000;0.000;2022-08-07T05:24:34;5.93;;;3.25;;
44636;SDS011;30343;0.000;0.000;2022-08-07T05:27:20;5.28;;;3.45;;
44636;SDS011;30343;0.000;0.000;2022-08-07T05:30:06;9.75;;;3.13;;
44636;SDS011;30343;0.000;0.000;2022-08-07T05:32:54;4.35;;;2.97;;
44636;SDS011;30343;0.000;0.000;2022-08-07T05:35:42;4.57;;;3.03;;
44636;SDS011;30343;0.000;0.000;2022-08-07T05:38:27;9.65;;;3.20;;
44636;SDS011;30343;0.000;0.000;2022-08-07T05:41:17;10.95;;;3.88;;
44636;SDS011;30343;0.000;0.000;2022-08-07T05:44:01;4.18;;;3.40;;
44636;SDS011;30343;0.000;0.000;2022-08-07T05:46:49;5.57;;;3.10;;
44636;SDS011;30343;0.000;0.000;2022-08-07T05:49:34;5.60;;;3.42;;
44636;SDS011;30343;0.000;0.000;2022-08-07T05:52:19;7.82;;;3.42;;
44636;SDS011;30343;0.000;0.000;2022-08-07T05:55:06;5.72;;;3.63;;
44636;SDS011;30343;0.000;0.000;2022-08-07T05:57:50;4.72;;;3.30;;
44636;SDS011;30343;0.000;0.000;2022-08-07T06:00:41;7.43;;;3.75;;
44636;SDS011;30343;0.000;0.000;2022-08-07T06:03:29;7.43;;;3.83;;
44636;SDS011;30343;0.000;0.000;2022-08-07T06:06:20;6.40;;;3.92;;
44636;SDS011;30343;0.000;0.000;2022-08-07T06:09:06;7.05;;;4.00;;
44636;SDS011;30343;0.000;0.000;2022-08-07T06:11:51;4.32;;;3.67;;
44636;SDS011;30343;0.000;0.000;2022-08-07T06:14:37;7.85;;;4.47;;
44636;SDS011;30343;0.000;0.000;2022-08-07T06:17:25;7.45;;;4.45;;
44636;SDS011;30343;0.000;0.000;2022-08-07T06:20:10;6.82;;;4.97;;
44636;SDS011;30343;0.000;0.000;2022-08-07T06:23:01;5.68;;;4.72;;
44636;SDS011;30343;0.000;0.000;2022-08-07T06:25:52;6.40;;;5.18;;
44636;SDS011;30343;0.000;0.000;2022-08-07T06:29:13;7.75;;;4.93;;
44636;SDS011;30343;0.000;0.000;2022-08-07T06:31:53;5.75;;;4.93;;
44636;SDS011;30343;0.000;0.000;2022-08-07T06:34:42;6.03;;;5.03;;
44636;SDS011;30343;0.000;0.000;2022-08-07T06:37:29;7.05;;;4.78;;
44636;SDS011;30343;0.000;0.000;2022-08-07T06:40:13;5.85;;;5.07;;
44636;SDS011;30343;0.000;0.000;2022-08-07T06:43:02;6.55;;;5.88;;
44636;SDS011;30343;0.000;0.000;2022-08-07T06:45:55;6.95;;;4.93;;
44636;SDS011;30343;0.000;0.000;2022-08-07T06:48:44;7.95;;;4.78;;
44636;SDS011;30343;0.000;0.000;2022-08-07T06:51:32;7.55;;;5.15;;
44636;SDS011;30343;0.000;0.000;2022-08-07T06:54:21;7.93;;;5.68;;
44636;SDS011;30343;0.000;0.000;2022-08-07T06:57:11;7.68;;;5.43;;
44636;SDS011;30343;0.000;0.000;2022-08-07T06:59:56;7.72;;;5.85;;
44636;SDS011;30343;0.000;0.000;2022-08-07T07:02:47;9.48;;;6.13;;
44636;SDS011;30343;0.000;0.000;2022-08-07T07:05:34;10.75;;;6.03;;
44636;SDS011;30343;0.000;0.000;2022-08-07T07:08:23;8.57;;;5.65;;
44636;SDS011;30343;0.000;0.000;2022-08-07T07:11:08;9.65;;;5.22;;
44636;SDS011;30343;0.000;0.000;2022-08-07T07:13:57;8.77;;;5.68;;
44636;SDS011;30343;0.000;0.000;2022-08-07T07:16:44;11.48;;;5.82;;
44636;SDS011;30343;0.000;0.000;2022-08-07T07:19:37;8.05;;;5.93;;
44636;SDS011;30343;0.000;0.000;2022-08-07T07:22:29;8.98;;;5.75;;
44636;SDS011;30343;0.000;0.000;2022-08-07T07:25:16;9.10;;;5.93;;
44636;SDS011;30343;0.000;0.000;2022-08-07T07:28:09;9.10;;;6.78;;
44636;SDS011;30343;0.000;0.000;2022-08-07T07:31:20;7.90;;;6.10;;
44636;SDS011;30343;0.000;0.000;2022-08-07T07:34:10;7.65;;;6.15;;
44636;SDS011;30343;0.000;0.000;2022-08-07T07:36:58;9.57;;;6.20;;
44636;SDS011;30343;0.000;0.000;2022-08-07T07:39:50;7.13;;;5.70;;
44636;SDS011;30343;0.000;0.000;2022-08-07T07:42:44;7.00;;;5.60;;
44636;SDS011;30343;0.000;0.000;2022-08-07T07:45:30;12.20;;;5.63;;
44636;SDS011;30343;0.000;0.000;2022-08-07T07:48:18;7.05;;;6.28;;
44636;SDS011;30343;0.000;0.000;2022-08-07T07:51:07;10.15;;;5.97;;
44636;SDS011;30343;0.000;0.000;2022-08-07T07:53:55;7.45;;;5.93;;
44636;SDS011;30343;0.000;0.000;2022-08-07T07:56:43;12.23;;;5.60;;
44636;SDS011;30343;0.000;0.000;2022-08-07T07:59:29;9.27;;;5.60;;
44636;SDS011;30343;0.000;0.000;2022-08-07T08:02:14;8.63;;;5.43;;
44636;SDS011;30343;0.000;0.000;2022-08-07T08:05:03;6.63;;;5.32;;
44636;SDS011;30343;0.000;0.000;2022-08-07T08:07:52;9.15;;;5.95;;
44636;SDS011;30343;0.000;0.000;2022-08-07T08:10:36;7.35;;;5.65;;
44636;SDS011;30343;0.000;0.000;2022-08-07T08:13:25;5.53;;;4.93;;
44636;SDS011;30343;0.000;0.000;2022-08-07T08:16:16;5.82;;;4.88;;
44636;SDS011;30343;0.000;0.000;2022-08-07T08:19:04;8.27;;;5.28;;
44636;SDS011;30343;0.000;0.000;2022-08-07T08:21:56;5.88;;;4.78;;
44636;SDS011;30343;0.000;0.000;2022-08-07T08:25:00;5.25;;;4.05;;
44636;SDS011;30343;0.000;0.000;2022-08-07T08:28:08;4.75;;;3.78;;
44636;SDS011;30343;0.000;0.000;2022-08-07T08:30:58;6.43;;;4.55;;
44636;SDS011;30343;0.000;0.000;2022-08-07T08:33:50;5.30;;;4.60;;
44636;SDS011;30343;0.000;0.000;2022-08-07T08:36:37;6.60;;;4.78;;
44636;SDS011;30343;0.000;0.000;2022-08-07T08:39:24;7.97;;;4.18;;
44636;SDS011;30343;0.000;0.000;2022-08-07T08:42:31;5.15;;;3.80;;
44636;SDS011;30343;0.000;0.000;2022-08-07T08:45:42;7.68;;;3.90;;
44636;SDS011;30343;0.000;0.000;2022-08-07T08:51:48;7.28;;;4.18;;
44636;SDS011;30343;0.000;0.000;2022-08-07T08:54:59;6.65;;;4.15;;
44636;SDS011;30343;0.000;0.000;2022-08-07T09:00:53;5.55;;;3.70;;
44636;SDS011;30343;0.000;0.000;2022-08-07T09:06:57;5.53;;;3.85;;
44636;SDS011;30343;0.000;0.000;2022-08-07T09:13:09;6.10;;;3.35;;
44636;SDS011;30343;0.000;0.000;2022-08-07T09:22:43;5.05;;;3.42;;
44636;SDS011;30343;0.000;0.000;2022-08-07T09:25:51;7.63;;;3.22;;
44636;SDS011;30343;0.000;0.000;2022-08-07T09:35:16;2.90;;;2.40;;
44636;SDS011;30343;0.000;0.000;2022-08-07T09:38:29;3.35;;;2.33;;
44636;SDS011;30343;0.000;0.000;2022-08-07T09:47:41;3.08;;;2.22;;
44636;SDS011;30343;0.000;0.000;2022-08-07T09:50:38;4.85;;;2.30;;
44636;SDS011;30343;0.000;0.000;2022-08-07T09:53:36;3.50;;;2.17;;
44636;SDS011;30343;0.000;0.000;2022-08-07T10:02:33;2.03;;;1.67;;
44636;SDS011;30343;0.000;0.000;2022-08-07T10:39:11;3.65;;;1.48;;
44636;SDS011;30343;0.000;0.000;2022-08-07T10:42:26;1.65;;;1.50;;
44636;SDS011;30343;0.000;0.000;2022-08-07T10:48:15;7.65;;;2.30;;
44636;SDS011;30343;0.000;0.000;2022-08-07T10:51:14;5.07;;;1.35;;
44636;SDS011;30343;0.000;0.000;2022-08-07T10:57:09;3.58;;;1.38;;
44636;SDS011;30343;0.000;0.000;2022-08-07T11:00:05;1.60;;;1.10;;
44636;SDS011;30343;0.000;0.000;2022-08-07T11:09:25;2.28;;;1.60;;
44636;SDS011;30343;0.000;0.000;2022-08-07T11:12:33;2.72;;;1.60;;
44636;SDS011;30343;0.000;0.000;2022-08-07T11:15:16;1.50;;;1.40;;
44636;SDS011;30343;0.000;0.000;2022-08-07T11:18:50;5.28;;;1.83;;
44636;SDS011;30343;0.000;0.000;2022-08-07T11:25:12;2.60;;;1.58;;
44636;SDS011;30343;0.000;0.000;2022-08-07T11:31:09;3.70;;;1.95;;
44636;SDS011;30343;0.000;0.000;2022-08-07T11:34:15;2.60;;;1.40;;
44636;SDS011;30343;0.000;0.000;2022-08-07T11:58:48;8.90;;;2.03;;
44636;SDS011;30343;0.000;0.000;2022-08-07T12:05:01;5.00;;;1.58;;
44636;SDS011;30343;0.000;0.000;2022-08-07T12:07:54;5.03;;;1.83;;
44636;SDS011;30343;0.000;0.000;2022-08-07T12:10:48;2.38;;;1.60;;
44636;SDS011;30343;0.000;0.000;2022-08-07T12:13:43;5.63;;;1.88;;
44636;SDS011;30343;0.000;0.000;2022-08-07T12:16:39;5.05;;;2.95;;
44636;SDS011;30343;0.000;0.000;2022-08-07T12:31:48;3.25;;;1.83;;
44636;SDS011;30343;0.000;0.000;2022-08-07T12:34:41;3.70;;;1.88;;
44636;SDS011;30343;0.000;0.000;2022-08-07T12:37:27;2.45;;;1.80;;
44636;SDS011;30343;0.000;0.000;2022-08-07T12:40:15;2.72;;;2.00;;
44636;SDS011;30343;0.000;0.000;2022-08-07T12:43:05;1.60;;;1.42;;
44636;SDS011;30343;0.000;0.000;2022-08-07T12:46:10;1.73;;;1.60;;
44636;SDS011;30343;0.000;0.000;2022-08-07T12:49:18;4.43;;;1.75;;
44636;SDS011;30343;0.000;0.000;2022-08-07T12:52:13;6.85;;;1.85;;
44636;SDS011;30343;0.000;0.000;2022-08-07T12:55:02;3.20;;;1.83;;
44636;SDS011;30343;0.000;0.000;2022-08-07T12:57:52;2.38;;;1.63;;
44636;SDS011;30343;0.000;0.000;2022-08-07T13:00:55;5.72;;;1.70;;
44636;SDS011;30343;0.000;0.000;2022-08-07T13:12:49;3.30;;;1.40;;
44636;SDS011;30343;0.000;0.000;2022-08-07T13:15:52;5.07;;;1.70;;
44636;SDS011;30343;0.000;0.000;2022-08-07T13:21:45;1.50;;;1.40;;
44636;SDS011;30343;0.000;0.000;2022-08-07T13:24:44;2.65;;;1.60;;
44636;SDS011;30343;0.000;0.000;2022-08-07T13:27:43;3.65;;;1.58;;
44636;SDS011;30343;0.000;0.000;2022-08-07T13:36:44;7.28;;;1.75;;
44636;SDS011;30343;0.000;0.000;2022-08-07T13:39:38;3.10;;;1.55;;
44636;SDS011;30343;0.000;0.000;2022-08-07T13:42:32;2.97;;;1.50;;
44636;SDS011;30343;0.000;0.000;2022-08-07T13:45:19;2.20;;;1.50;;
44636;SDS011;30343;0.000;0.000;2022-08-07T13:48:07;2.17;;;1.50;;
44636;SDS011;30343;0.000;0.000;2022-08-07T13:50:59;2.50;;;1.40;;
44636;SDS011;30343;0.000;0.000;2022-08-07T13:53:48;3.83;;;1.50;;
44636;SDS011;30343;0.000;0.000;2022-08-07T13:56:38;2.28;;;1.33;;
44636;SDS011;30343;0.000;0.000;2022-08-07T13:59:27;4.25;;;1.42;;
44636;SDS011;30343;0.000;0.000;2022-08-07T14:02:18;3.30;;;1.40;;
44636;SDS011;30343;0.000;0.000;2022-08-07T14:05:11;2.45;;;1.38;;
44636;SDS011;30343;0.000;0.000;2022-08-07T14:08:03;4.90;;;1.95;;
44636;SDS011;30343;0.000;0.000;2022-08-07T14:10:50;3.47;;;1.50;;
44636;SDS011;30343;0.000;0.000;2022-08-07T14:13:35;3.08;;;1.77;;
44636;SDS011;30343;0.000;0.000;2022-08-07T14:16:24;2.30;;;1.75;;
44636;SDS011;30343;0.000;0.000;2022-08-07T14:19:16;7.03;;;1.95;;
44636;SDS011;30343;0.000;0.000;2022-08-07T14:22:07;2.70;;;1.67;;
44636;SDS011;30343;0.000;0.000;2022-08-07T14:24:59;3.63;;;1.70;;
44636;SDS011;30343;0.000;0.000;2022-08-07T14:27:49;4.03;;;1.40;;
44636;SDS011;30343;0.000;0.000;2022-08-07T14:30:37;6.47;;;1.60;;
44636;SDS011;30343;0.000;0.000;2022-08-07T14:33:22;3.30;;;1.90;;
44636;SDS011;30343;0.000;0.000;2022-08-07T14:36:12;2.33;;;1.50;;
44636;SDS011;30343;0.000;0.000;2022-08-07T14:39:05;3.08;;;1.52;;
44636;SDS011;30343;0.000;0.000;2022-08-07T14:41:50;7.25;;;1.98;;
44636;SDS011;30343;0.000;0.000;2022-08-07T14:44:46;2.90;;;1.73;;
44636;SDS011;30343;0.000;0.000;2022-08-07T14:47:37;2.33;;;1.80;;
44636;SDS011;30343;0.000;0.000;2022-08-07T14:50:29;6.55;;;2.03;;
44636;SDS011;30343;0.000;0.000;2022-08-07T14:53:16;7.32;;;1.80;;
44636;SDS011;30343;0.000;0.000;2022-08-07T14:56:07;2.17;;;1.67;;
44636;SDS011;30343;0.000;0.000;2022-08-07T14:58:53;3.65;;;1.63;;
44636;SDS011;30343;0.000;0.000;2022-08-07T15:01:42;9.40;;;1.73;;
44636;SDS011;30343;0.000;0.000;2022-08-07T15:04:30;3.80;;;1.73;;
44636;SDS011;30343;0.000;0.000;2022-08-07T15:07:22;3.40;;;1.70;;
44636;SDS011;30343;0.000;0.000;2022-08-07T15:10:09;1.98;;;1.40;;
44636;SDS011;30343;0.000;0.000;2022-08-07T15:13:01;3.42;;;1.65;;
44636;SDS011;30343;0.000;0.000;2022-08-07T15:16:01;2.13;;;1.42;;
44636;SDS011;30343;0.000;0.000;2022-08-07T15:18:52;4.65;;;2.05;;
44636;SDS011;30343;0.000;0.000;2022-08-07T15:21:44;3.85;;;1.83;;
44636;SDS011;30343;0.000;0.000;2022-08-07T15:24:37;5.68;;;1.80;;
44636;SDS011;30343;0.000;0.000;2022-08-07T15:27:35;4.35;;;1.80;;
44636;SDS011;30343;0.000;0.000;2022-08-07T15:30:24;3.35;;;1.63;;
44636;SDS011;30343;0.000;0.000;2022-08-07T15:33:18;4.18;;;1.50;;
44636;SDS011;30343;0.000;0.000;2022-08-07T15:36:10;2.60;;;1.40;;
44636;SDS011;30343;0.000;0.000;2022-08-07T15:39:06;2.13;;;1.58;;
44636;SDS011;30343;0.000;0.000;2022-08-07T15:42:01;2.20;;;1.40;;
44636;SDS011;30343;0.000;0.000;2022-08-07T15:44:49;1.75;;;1.52;;
44636;SDS011;30343;0.000;0.000;2022-08-07T15:47:38;3.33;;;1.77;;
44636;SDS011;30343;0.000;0.000;2022-08-07T15:50:26;2.92;;;1.55;;
44636;SDS011;30343;0.000;0.000;2022-08-07T15:56:21;2.28;;;1.67;;
44636;SDS011;30343;0.000;0.000;2022-08-07T15:59:19;1.83;;;1.30;;
44636;SDS011;30343;0.000;0.000;2022-08-07T16:02:35;2.92;;;1.80;;
44636;SDS011;30343;0.000;0.000;2022-08-07T16:05:27;3.15;;;1.70;;
44636;SDS011;30343;0.000;0.000;2022-08-07T16:08:18;2.83;;;1.27;;
44636;SDS011;30343;0.000;0.000;2022-08-07T16:11:10;4.05;;;1.92;;
44636;SDS011;30343;0.000;0.000;2022-08-07T16:14:12;2.83;;;1.58;;
44636;SDS011;30343;0.000;0.000;2022-08-07T16:17:09;9.35;;;1.45;;
44636;SDS011;30343;0.000;0.000;2022-08-07T16:32:16;4.95;;;1.95;;
44636;SDS011;30343;0.000;0.000;2022-08-07T16:47:24;5.05;;;1.88;;
44636;SDS011;30343;0.000;0.000;2022-08-07T16:59:38;3.05;;;1.63;;
44636;SDS011;30343;0.000;0.000;2022-08-07T17:08:40;3.78;;;2.03;;
44636;SDS011;30343;0.000;0.000;2022-08-07T17:11:36;2.03;;;1.80;;
44636;SDS011;30343;0.000;0.000;2022-08-07T17:14:33;3.03;;;1.88;;
44636;SDS011;30343;0.000;0.000;2022-08-07T17:17:36;4.78;;;1.80;;
44636;SDS011;30343;0.000;0.000;2022-08-07T17:20:33;4.05;;;1.63;;
44636;SDS011;30343;0.000;0.000;2022-08-07T17:26:34;3.92;;;1.88;;
44636;SDS011;30343;0.000;0.000;2022-08-07T17:29:25;2.28;;;1.80;;
44636;SDS011;30343;0.000;0.000;2022-08-07T17:44:50;3.83;;;2.20;;
44636;SDS011;30343;0.000;0.000;2022-08-07T17:54:11;5.70;;;2.50;;
44636;SDS011;30343;0.000;0.000;2022-08-07T17:57:01;3.83;;;2.10;;
44636;SDS011;30343;0.000;0.000;2022-08-07T17:59:55;3.65;;;1.73;;
44636;SDS011;30343;0.000;0.000;2022-08-07T18:05:47;3.28;;;2.53;;
44636;SDS011;30343;0.000;0.000;2022-08-07T18:11:25;2.70;;;2.15;;
44636;SDS011;30343;0.000;0.000;2022-08-07T18:14:30;5.18;;;2.13;;
44636;SDS011;30343;0.000;0.000;2022-08-07T18:20:28;4.40;;;1.95;;
44636;SDS011;30343;0.000;0.000;2022-08-07T18:23:23;2.30;;;2.08;;
44636;SDS011;30343;0.000;0.000;2022-08-07T18:26:13;3.50;;;1.83;;
44636;SDS011;30343;0.000;0.000;2022-08-07T18:29:04;3.58;;;1.92;;
44636;SDS011;30343;0.000;0.000;2022-08-07T18:32:07;3.88;;;1.85;;
44636;SDS011;30343;0.000;0.000;2022-08-07T18:41:15;2.83;;;2.17;;
44636;SDS011;30343;0.000;0.000;2022-08-07T18:47:28;1.98;;;1.60;;
44636;SDS011;30343;0.000;0.000;2022-08-07T18:56:44;4.45;;;2.08;;
44636;SDS011;30343;0.000;0.000;2022-08-07T18:59:35;4.32;;;1.98;;
44636;SDS011;30343;0.000;0.000;2022-08-07T19:06:12;5.03;;;2.00;;
44636;SDS011;30343;0.000;0.000;2022-08-07T19:09:03;3.53;;;2.10;;
44636;SDS011;30343;0.000;0.000;2022-08-07T19:17:58;2.92;;;2.28;;
44636;SDS011;30343;0.000;0.000;2022-08-07T19:24:21;3.22;;;2.28;;
44636;SDS011;30343;0.000;0.000;2022-08-07T19:27:19;2.25;;;2.05;;
44636;SDS011;30343;0.000;0.000;2022-08-07T19:30:07;5.45;;;2.42;;
44636;SDS011;30343;0.000;0.000;2022-08-07T19:33:00;2.47;;;1.92;;
44636;SDS011;30343;0.000;0.000;2022-08-07T19:35:52;2.95;;;2.33;;
44636;SDS011;30343;0.000;0.000;2022-08-07T19:38:39;3.70;;;2.28;;
44636;SDS011;30343;0.000;0.000;2022-08-07T19:41:27;3.38;;;2.20;;
44636;SDS011;30343;0.000;0.000;2022-08-07T19:44:23;2.85;;;2.13;;
44636;SDS011;30343;0.000;0.000;2022-08-07T19:47:13;3.05;;;2.00;;
44636;SDS011;30343;0.000;0.000;2022-08-07T19:50:00;2.95;;;1.88;;
44636;SDS011;30343;0.000;0.000;2022-08-07T19:52:48;4.03;;;2.15;;
44636;SDS011;30343;0.000;0.000;2022-08-07T19:55:40;2.90;;;1.90;;
44636;SDS011;30343;0.000;0.000;2022-08-07T19:58:28;3.45;;;2.33;;
44636;SDS011;30343;0.000;0.000;2022-08-07T20:01:15;4.95;;;2.10;;
44636;SDS011;30343;0.000;0.000;2022-08-07T20:04:03;3.15;;;2.28;;
44636;SDS011;30343;0.000;0.000;2022-08-07T20:06:53;5.43;;;2.08;;
44636;SDS011;30343;0.000;0.000;2022-08-07T20:09:45;2.80;;;2.30;;
44636;SDS011;30343;0.000;0.000;2022-08-07T20:12:34;3.60;;;3.03;;
44636;SDS011;30343;0.000;0.000;2022-08-07T20:15:25;5.28;;;2.65;;
44636;SDS011;30343;0.000;0.000;2022-08-07T20:18:13;3.17;;;2.40;;
44636;SDS011;30343;0.000;0.000;2022-08-07T20:21:04;3.15;;;2.00;;
44636;SDS011;30343;0.000;0.000;2022-08-07T20:23:58;2.25;;;1.98;;
44636;SDS011;30343;0.000;0.000;2022-08-07T20:26:49;4.55;;;2.45;;
44636;SDS011;30343;0.000;0.000;2022-08-07T20:29:43;4.83;;;2.43;;
44636;SDS011;30343;0.000;0.000;2022-08-07T20:32:35;3.42;;;2.42;;
44636;SDS011;30343;0.000;0.000;2022-08-07T20:35:30;2.70;;;1.88;;
44636;SDS011;30343;0.000;0.000;2022-08-07T20:38:20;3.03;;;2.15;;
44636;SDS011;30343;0.000;0.000;2022-08-07T20:41:09;2.45;;;1.92;;
44636;SDS011;30343;0.000;0.000;2022-08-07T20:43:56;4.32;;;2.40;;
44636;SDS011;30343;0.000;0.000;2022-08-07T20:46:43;2.75;;;2.22;;
44636;SDS011;30343;0.000;0.000;2022-08-07T20:49:29;4.30;;;2.33;;
44636;SDS011;30343;0.000;0.000;2022-08-07T20:52:23;8.32;;;2.70;;
44636;SDS011;30343;0.000;0.000;2022-08-07T20:55:07;4.88;;;3.00;;
44636;SDS011;30343;0.000;0.000;2022-08-07T20:57:55;4.57;;;2.30;;
44636;SDS011;30343;0.000;0.000;2022-08-07T21:00:42;3.88;;;2.20;;
44636;SDS011;30343;0.000;0.000;2022-08-07T21:03:29;4.00;;;2.60;;
44636;SDS011;30343;0.000;0.000;2022-08-07T21:06:19;3.10;;;2.17;;
44636;SDS011;30343;0.000;0.000;2022-08-07T21:09:08;5.55;;;3.28;;
44636;SDS011;30343;0.000;0.000;2022-08-07T21:12:01;4.10;;;2.92;;
44636;SDS011;30343;0.000;0.000;2022-08-07T21:14:48;4.60;;;2.15;;
44636;SDS011;30343;0.000;0.000;2022-08-07T21:17:33;4.07;;;2.67;;
44636;SDS011;30343;0.000;0.000;2022-08-07T21:20:22;3.53;;;2.35;;
44636;SDS011;30343;0.000;0.000;2022-08-07T21:39:04;5.70;;;3.15;;
44636;SDS011;30343;0.000;0.000;2022-08-07T21:45:14;3.38;;;2.45;;
44636;SDS011;30343;0.000;0.000;2022-08-07T21:48:05;3.72;;;2.67;;
44636;SDS011;30343;0.000;0.000;2022-08-07T21:53:52;3.92;;;3.05;;
44636;SDS011;30343;0.000;0.000;2022-08-07T21:56:53;3.95;;;2.92;;
44636;SDS011;30343;0.000;0.000;2022-08-07T22:02:53;5.00;;;2.67;;
44636;SDS011;30343;0.000;0.000;2022-08-07T22:08:35;4.93;;;3.05;;
44636;SDS011;30343;0.000;0.000;2022-08-07T22:14:11;8.63;;;3.10;;
44636;SDS011;30343;0.000;0.000;2022-08-07T22:16:59;3.53;;;2.88;;
44636;SDS011;30343;0.000;0.000;2022-08-07T22:22:47;4.53;;;3.35;;
44636;SDS011;30343;0.000;0.000;2022-08-07T22:32:10;5.22;;;2.85;;
44636;SDS011;30343;0.000;0.000;2022-08-07T22:35:18;4.63;;;3.17;;
44636;SDS011;30343;0.000;0.000;2022-08-07T22:43:46;5.10;;;2.92;;
44636;SDS011;30343;0.000;0.000;2022-08-07T22:56:11;5.82;;;3.20;;
44636;SDS011;30343;0.000;0.000;2022-08-07T22:59:47;3.75;;;2.95;;